25 września 2022

Czas Kod Pogoda Temp. Widoczność Sufit Wiatr METAR/SPECI
22:00
V
11 °C 10 km+ - Var 000° 0 kt METAR LFCK 252000Z AUTO 00000KT CAVOK 11/09 Q1017 NOSIG
21:30
V
12 °C 10 km+ - Var 000° 0 kt METAR LFCK 251930Z AUTO 00000KT CAVOK 12/09 Q1017 NOSIG
21:00
V
13 °C 10 km+ - 240° 240° 3 kt METAR LFCK 251900Z AUTO 24003KT CAVOK 13/09 Q1017 NOSIG
20:30
V
14 °C 10 km+ - Var Var 2 kt METAR LFCK 251830Z AUTO VRB02KT CAVOK 14/10 Q1016 NOSIG
20:00
V
15 °C 10 km+ - 330° 330° 5 kt METAR LFCK 251800Z AUTO 33005KT CAVOK 15/10 Q1016 NOSIG
19:30
V
16 °C 10 km+ - 330° 330° 7 kt METAR LFCK 251730Z AUTO 33007KT CAVOK 16/10 Q1016 NOSIG
19:00
V
17 °C 10 km+ - 320° 320° 10 kt METAR LFCK 251700Z AUTO 32010KT CAVOK 17/10 Q1016 NOSIG
18:30
V
17 °C 10 km+ - 310° 310° 10 kt METAR LFCK 251630Z AUTO 31010KT 9999 FEW032 17/09 Q1015 NOSIG
18:00
V
18 °C 10 km+ - 320° 320° 10 kt METAR LFCK 251600Z AUTO 32010KT 290V350 9999 FEW033 18/10 Q1015 NOSIG
17:30
V
18 °C 10 km+ - 320° 320° 11 kt METAR LFCK 251530Z AUTO 32011KT 290V350 9999 FEW036 18/10 Q1015 NOSIG
17:00
V
18 °C 10 km+ - 320° 320° 10 kt METAR LFCK 251500Z AUTO 32010KT 290V360 9999 FEW033 18/10 Q1015 NOSIG
16:30
V
18 °C 10 km+ - 320° 320° 10 kt METAR LFCK 251430Z AUTO 32010KT 290V350 9999 SCT031 18/11 Q1015 NOSIG
16:00
V
18 °C 10 km+ - 300° 300° 9 kt METAR LFCK 251400Z AUTO 30009KT 270V340 9999 FEW032 18/10 Q1016 NOSIG
15:30
M
18 °C 10 km+ 2.900 ft 310° 310° 10 kt METAR LFCK 251330Z AUTO 31010KT 9999 BKN029 18/10 Q1016 NOSIG
15:00
V
17 °C 10 km+ - 320° 320° 10 kt METAR LFCK 251300Z AUTO 32010KT 290V350 9999 FEW028 17/11 Q1016 NOSIG
14:30
V
17 °C 10 km+ - 300° 300° 10 kt METAR LFCK 251230Z AUTO 30010KT 270V330 CAVOK 17/10 Q1016 NOSIG
14:00
V
16 °C 10 km+ 6.200 ft 330° 330° 10 kt METAR LFCK 251200Z AUTO 33010KT 9999 SCT025 SCT045 BKN062 16/10 Q1017 NOSIG
13:30
V
16 °C 10 km+ 6.000 ft 300° 300° 8 kt METAR LFCK 251130Z AUTO 30008KT 270V350 9999 SCT025 SCT032 BKN060 16/10 Q1017 NOSIG
13:00
V
16 °C 10 km+ 5.400 ft 320° 320° 8 kt METAR LFCK 251100Z AUTO 32008KT 280V360 9999 SCT023 SCT044 BKN054 16/10 Q1017 NOSIG
12:30
V
16 °C 10 km+ - 330° 330° 8 kt METAR LFCK 251030Z AUTO 33008KT 300V010 9999 FEW021 SCT046 16/11 Q1017 NOSIG
12:00
V
16 °C 10 km+ 3.300 ft 290° 290° 9 kt METAR LFCK 251000Z AUTO 29009KT 270V330 9999 FEW019 SCT028 BKN033 16/11 Q1017 NOSIG
11:30
M
15 °C 10 km+ 1.500 ft 290° 290° 8 kt METAR LFCK 250930Z AUTO 29008KT 9999 BKN015 BKN021 OVC026 15/11 Q1017 NOSIG
11:00
M
14 °C 10 km+ 2.300 ft 280° 280° 8 kt METAR LFCK 250900Z AUTO 28008KT 9999 SCT015 BKN023 OVC029 14/11 Q1017 NOSIG
10:30
M
13 °C 10 km+ 1.200 ft 290° 290° 10 kt METAR LFCK 250830Z AUTO 29010KT 9999 BKN012 OVC026 13/10 Q1017 BECMG SCT013 BKN020
10:00
M
13 °C 10 km+ 1.100 ft 300° 300° 9 kt METAR LFCK 250800Z AUTO 30009KT 9999 BKN011 OVC027 13/11 Q1016 BECMG SCT013 BKN020
09:30
I
13 °C 10 km+ 800 ft 300° 300° 10 kt METAR LFCK 250730Z AUTO 30010KT 9999 BKN008 OVC012 13/11 Q1016 BECMG SCT013 BKN020
09:00
I
13 °C 10 km+ 700 ft 290° 290° 9 kt METAR LFCK 250700Z AUTO 29009KT 9999 BKN007 OVC012 13/11 Q1016 BECMG SCT013 BKN020
08:30
M
13 °C 10 km+ 1.000 ft 300° 300° 7 kt METAR LFCK 250630Z AUTO 30007KT 9999 BKN010 OVC016 13/11 Q1016 BECMG SCT013 BKN020
08:00
M
13 °C 10 km+ 1.700 ft 290° 290° 8 kt METAR LFCK 250600Z AUTO 29008KT 9999 SCT011 BKN017 BKN030 13/12 Q1016 BECMG BKN008 OVC012
07:30
I
13 °C 10 km+ 900 ft 290° 290° 6 kt METAR LFCK 250530Z AUTO 29006KT 9999 BKN009 OVC015 13/12 Q1016 NOSIG
07:00
I
13 °C 10 km+ 800 ft 280° 280° 7 kt METAR LFCK 250500Z AUTO 28007KT 9999 BKN008 OVC012 13/12 Q1016
06:30
I
13 °C 10 km+ 900 ft 280° 280° 8 kt METAR LFCK 250430Z AUTO 28008KT 9999 BKN009 OVC014 13/11 Q1016
06:00
I
13 °C 10 km+ 900 ft 280° 280° 8 kt METAR LFCK 250400Z AUTO 28008KT 9999 OVC009 13/11 Q1015
05:30
M
13 °C 10 km+ 1.000 ft 280° 280° 8 kt METAR LFCK 250330Z AUTO 28008KT 9999 OVC010/// ///TCU 13/11 Q1015
05:00
I
13 °C 10 km+ 900 ft 270° 270° 8 kt METAR LFCK 250300Z AUTO 27008KT 9999 OVC009 13/12 Q1015
04:30
M
13 °C 10 km+ 1.200 ft 280° 280° 7 kt METAR LFCK 250230Z AUTO 28007KT 9999 OVC012 13/12 Q1016
04:00
M
14 °C 10 km+ 1.300 ft 280° 280° 7 kt METAR LFCK 250200Z AUTO 28007KT 9999 OVC013 14/12 Q1016
03:30
M
14 °C 10 km+ 1.300 ft 290° 290° 8 kt METAR LFCK 250130Z AUTO 29008KT 9999 OVC013 14/11 Q1016
03:00
M
14 °C 10 km+ 1.400 ft 290° 290° 7 kt METAR LFCK 250100Z AUTO 29007KT 9999 OVC014 14/11 Q1016
02:30
M
14 °C 10 km+ 1.500 ft 270° 270° 8 kt METAR LFCK 250030Z AUTO 27008KT 9999 BKN015 BKN038 BKN045 14/11 Q1016
02:00
V
14 °C 10 km+ 4.100 ft 260° 260° 8 kt METAR LFCK 250000Z AUTO 26008KT 9999 SCT016/// OVC041/// ///TCU 14/11 Q1016
01:30
M
14 °C 10 km+ 1.500 ft 270° 270° 7 kt METAR LFCK 242330Z AUTO 27007KT 9999 OVC015 14/12 Q1016
01:00
M
14 °C 10 km+ 1.700 ft 290° 290° 6 kt METAR LFCK 242300Z AUTO 29006KT 9999 BKN017 OVC023 14/12 Q1016
00:30
M
14 °C 10 km+ 1.700 ft 290° 290° 6 kt METAR LFCK 242230Z AUTO 29006KT 260V330 9999 OVC017 14/12 Q1016
00:00
M
14 °C 10 km+ 2.100 ft 270° 270° 9 kt METAR LFCK 242200Z AUTO 27009KT 9999 OVC021 14/12 Q1016

24 września 2022

Czas Kod Pogoda Temp. Widoczność Sufit Wiatr METAR/SPECI
23:30
M
14 °C 10 km+ 2.400 ft 260° 260° 7 kt METAR LFCK 242130Z AUTO 26007KT 9999 BKN024/// OVC032/// ///TCU 14/12 Q1016
23:00
M
14 °C 10 km+ 2.500 ft 260° 260° 8 kt METAR LFCK 242100Z AUTO 26008KT 9999 OVC025/// ///TCU 14/12 Q1016 TEMPO 4000 SHRA BECMG SCT013 BKN030
22:30
M
15 °C 10 km+ 2.500 ft 250° 250° 10 kt METAR LFCK 242030Z AUTO 25010KT 9999 FEW015/// BKN025/// BKN038/// ///TCU 15/12 Q1017 TEMPO 4000 SHRA BECMG SCT013 BKN030
22:00
M
15 °C 10 km+ 1.500 ft 280° 280° 4 kt METAR LFCK 242000Z AUTO 28004KT 250V310 9999 BKN015 OVC024 15/13 Q1016 TEMPO 4000 SHRA BKN025TCU
21:30
M
15 °C 10 km+ 2.500 ft 260° 260° 3 kt METAR LFCK 241930Z AUTO 26003KT 220V280 9999 DZ BKN025 BKN072 OVC110 15/12 Q1016 TEMPO 4000 SHRA BKN025TCU
21:00
M
15 °C 10 km+ 2.800 ft 270° 270° 3 kt METAR LFCK 241900Z AUTO 27003KT 9999 BKN028 OVC072 15/12 Q1016 TEMPO 4000 SHRA BKN025TCU
20:30
V
15 °C 10 km+ - 260° 260° 5 kt METAR LFCK 241830Z AUTO 26005KT 9999 ///TCU 15/13 Q1016 TEMPO 4000 SHRA
20:00
V
15 °C 10 km+ 7.400 ft 280° 280° 6 kt METAR LFCK 241800Z AUTO 28006KT 9999 FEW026/// BKN074/// OVC130/// ///TCU 15/13 Q1016 TEMPO 4000 SHRA
19:30
V
15 °C 10 km+ 3.900 ft 250° 250° 7 kt METAR LFCK 241730Z AUTO 25007KT 9999 -RA SCT025/// BKN039/// BKN046/// ///CB 15/14 Q1015 TEMPO 4000 SHRA
19:00
V
15 °C 10 km+ 6.200 ft 290° 290° 8 kt METAR LFCK 241700Z AUTO 29008KT 9999 -RA FEW026/// SCT052/// OVC062/// ///CB 15/13 Q1015 TEMPO 4000 SHRA
18:30
I
16 °C 3,4 km 2.200 ft 330° 330° 10 kt METAR LFCK 241630Z AUTO 33010KT 3400 R14/1400U +RA BR FEW014/// BKN022/// BKN036/// ///CB 16/14 Q1015 NOSIG
18:00
V
17 °C 10 km+ 7.400 ft 320° 320° 11 kt METAR LFCK 241600Z AUTO 32011KT 9999 FEW031/// SCT048/// BKN074/// ///TCU 17/13 Q1014 TEMPO 4000 SHRA
17:30
V
18 °C 10 km+ 7.000 ft 310° 310° 10 kt METAR LFCK 241530Z AUTO 31010KT 9999 FEW028/// OVC070/// ///TCU 18/12 Q1014 TEMPO 4000 SHRA
17:00
V
19 °C 10 km+ 6.400 ft 300° 300° 10 kt METAR LFCK 241500Z AUTO 30010KT 9999 SCT033/// OVC064/// ///TCU 19/12 Q1014 TEMPO 4000 SHRA
16:30
V
19 °C 10 km+ 4.400 ft 340° 340° 10 kt METAR LFCK 241430Z AUTO 34010KT 9999 SCT037 BKN044 BKN052 19/12 Q1014 TEMPO 4000 SHRA BKN025TCU
16:00
V
20 °C 10 km+ 5.600 ft 310° 310° 6 kt METAR LFCK 241400Z AUTO 31006KT 280V340 9999 SCT037 BKN056 BKN066 20/12 Q1014 TEMPO 4000 SHRA BKN025TCU
15:30
V
19 °C 10 km+ 6.000 ft 300° 300° 8 kt METAR LFCK 241330Z AUTO 30008KT 270V330 9999 FEW039 SCT047 BKN060 19/11 Q1014 TEMPO 4000 SHRA BKN025TCU
15:00
V
20 °C 10 km+ 5.000 ft 290° 290° 10 kt METAR LFCK 241300Z AUTO 29010KT 260V330 9999 SCT041 BKN050 BKN120 20/10 Q1015 TEMPO 4000 SHRA BKN025TCU
14:30
V
20 °C 10 km+ - 300° 300° 9 kt METAR LFCK 241230Z AUTO 30009KT 270V330 9999 FEW034 20/10 Q1015 TEMPO 4000 SHRA BKN025TCU
14:00
M
20 °C 10 km+ 2.700 ft 280° 280° 7 kt METAR LFCK 241200Z AUTO 28007KT 240V320 9999 BKN027 BKN038 BKN048 20/13 Q1015 TEMPO 4000 SHRA BKN025TCU
13:30
V
18 °C 10 km+ 11.000 ft 270° 270° 5 kt METAR LFCK 241130Z AUTO 27005KT 210V330 9999 SCT025 SCT041 BKN110 18/13 Q1016 TEMPO 4000 SHRA BKN035TCU
13:00
M
18 °C 10 km+ 1.900 ft 260° 260° 4 kt METAR LFCK 241100Z AUTO 26004KT 230V350 9999 BKN019 BKN025 BKN031 18/14 Q1016 BECMG SCT030TCU
12:30
V
18 °C 10 km+ 3.800 ft Var 000° 0 kt METAR LFCK 241030Z AUTO 00000KT 9999 FEW014 SCT021 OVC038 18/14 Q1016 BECMG SCT030TCU
12:00
M
17 °C 10 km+ 2.700 ft Var Var 1 kt METAR LFCK 241000Z AUTO VRB01KT 9999 FEW013 SCT022 BKN027 17/13 Q1016 BECMG SCT030TCU
11:30
M
16 °C 10 km+ 1.200 ft Var Var 1 kt METAR LFCK 240930Z AUTO VRB01KT 9999 BKN012 OVC017 16/14 Q1016 BECMG SCT030TCU
11:00
M
16 °C 10 km+ 2.700 ft Var Var 2 kt METAR LFCK 240900Z AUTO VRB02KT 9999 SCT013 SCT018 BKN027 16/14 Q1016 BECMG SCT030TCU
10:30
V
16 °C 10 km+ 3.000 ft Var Var 3 kt METAR LFCK 240830Z AUTO VRB03KT 9999 FEW009 OVC030 16/13 Q1016 NOSIG
10:00
I
16 °C 10 km+ 800 ft 290° 290° 5 kt METAR LFCK 240800Z AUTO 29005KT 9999 BKN008 BKN019 BKN029 16/14 Q1016 BECMG BKN020
09:30
M
16 °C 10 km+ 1.500 ft 270° 270° 5 kt METAR LFCK 240730Z AUTO 27005KT 9999 FEW007 BKN015 BKN048 16/15 Q1016 NOSIG
09:00
I
15 °C 10 km+ 500 ft 280° 280° 4 kt METAR LFCK 240700Z AUTO 28004KT 9999 BKN005 BKN034 OVC064 15/14 Q1016 TEMPO 4500 -RADZ BECMG BKN020
08:30
M
15 °C 10 km+ 1.300 ft 250° 250° 4 kt METAR LFCK 240630Z AUTO 25004KT 9999 FEW006 BKN013 BKN033 15/15 Q1016 TEMPO 4500 -RADZ BECMG BKN020
08:00
V
15 °C 10 km+ 3.400 ft 270° 270° 3 kt METAR LFCK 240600Z AUTO 27003KT 9999 SCT011 BKN034 OVC040 15/15 Q1016 TEMPO 4500 -RADZ OVC008
07:30
I
15 °C 10 km+ 800 ft 300° 300° 3 kt METAR LFCK 240530Z AUTO 30003KT 9999 BKN008 BKN012 OVC023 15/15 Q1016 TEMPO 4500 -RADZ
07:00
I
15 °C 7 km 600 ft 280° 280° 3 kt METAR LFCK 240500Z AUTO 28003KT 7000 -DZ BKN006 OVC017 15/15 Q1016
06:30
I
15 °C 6 km 900 ft 310° 310° 3 kt METAR LFCK 240430Z AUTO 31003KT 6000 -RADZ BKN009 OVC013 15/14 Q1016
06:00
M
15 °C 10 km+ 2.200 ft 320° 320° 3 kt METAR LFCK 240400Z AUTO 32003KT 9999 OVC022 15/14 Q1015
05:30
M
15 °C 10 km+ 2.300 ft 290° 290° 5 kt METAR LFCK 240330Z AUTO 29005KT 9999 SCT015 OVC023 15/14 Q1016
05:00
M
15 °C 10 km+ 1.100 ft 280° 280° 4 kt METAR LFCK 240300Z AUTO 28004KT 9999 BKN011 BKN019 OVC035 15/14 Q1016
04:30
I
15 °C 10 km+ 900 ft 260° 260° 4 kt METAR LFCK 240230Z AUTO 26004KT 9999 BKN009 BKN019 BKN040 15/14 Q1016
04:00
M
15 °C 10 km+ 1.800 ft 260° 260° 4 kt METAR LFCK 240200Z AUTO 26004KT 9999 FEW008 OVC018 15/14 Q1016
03:30
I
15 °C 10 km+ 700 ft 270° 270° 9 kt METAR LFCK 240130Z AUTO 27009KT 9999 BKN007 OVC011 15/14 Q1016
03:00
I
16 °C 10 km+ 600 ft 290° 290° 8 kt METAR LFCK 240100Z AUTO 29008KT 9999 OVC006 16/15 Q1017
02:30
L
16 °C 10 km+ 300 ft 290° 290° 10 kt METAR LFCK 240030Z AUTO 29010KT 9999 OVC003 16/15 Q1017
02:00
L
16 °C 10 km+ 400 ft 300° 300° 11 kt METAR LFCK 240000Z AUTO 30011KT 9999 OVC004 16/15 Q1017
01:30
L
16 °C 9 km 300 ft 280° 280° 8 kt METAR LFCK 232330Z AUTO 28008KT 9000 OVC003 16/16 Q1016
01:00
I
16 °C 10 km+ 700 ft 270° 270° 9 kt METAR LFCK 232300Z AUTO 27009KT 9999 BKN007 OVC090 16/16 Q1017
00:30
V
16 °C 9 km 8.000 ft 250° 250° 5 kt METAR LFCK 232230Z AUTO 25005KT 9000 FEW010/// BKN080/// OVC110/// ///CB 16/16 Q1017
00:00
V
16 °C 10 km+ 10.000 ft Var Var 2 kt METAR LFCK 232200Z AUTO VRB02KT 9999 -RA SCT006/// SCT016/// OVC100/// ///CB 16/16 Q1017

23 września 2022

Czas Kod Pogoda Temp. Widoczność Sufit Wiatr METAR/SPECI
23:30
L
16 °C 4 km 400 ft 300° 300° 12 kt METAR LFCK 232130Z AUTO 30012KT 4000 +RA BR VCTS BKN004/// OVC010/// ///CB 16/16 Q1018
23:00
L
16 °C 1,9 km 300 ft 310° 310° 13 kt METAR LFCK 232100Z AUTO 31013KT 1900 +TSRA BR BKN003/// BKN011/// BKN021/// ///CB 16/16 Q1017
22:30
I
17 °C 2,8 km 2.600 ft 010° 010° 5 kt METAR LFCK 232030Z AUTO 01005KT 300V110 2800 +TSRA BR FEW020/// BKN026/// OVC033/// ///CB 17/16 Q1017 TEMPO 32015G25KT 4000 SHRA BKN012 SCT030CB
22:00
I
17 °C 2,2 km 2.400 ft 340° 340° 14 kt METAR LFCK 232000Z AUTO 34014KT 310V020 8000 2200 RA VCTS FEW007/// BKN024/// BKN029/// ///CB 17/16 Q1016 TEMPO 32015G25KT 2000 TSRA BKN012 SCT030CB
21:30
V
20 °C 10 km+ 4.700 ft 130° 130° 9 kt METAR LFCK 231930Z AUTO 13009KT 100V170 9999 VCTS BKN047/// OVC056/// ///CB 20/15 Q1016 TEMPO 32015G25KT 2000 TSRA BKN012 SCT030CB
21:00
V
20 °C 10 km+ 9.600 ft 130° 130° 11 kt METAR LFCK 231900Z AUTO 13011KT 9999 SCT047/// BKN096/// OVC130/// ///CB 20/15 Q1016 TEMPO 32015G25KT 2000 TSRA BKN012 SCT030CB
20:30
V
20 °C 10 km+ - 120° 120° 13 kt METAR LFCK 231830Z AUTO 12013KT 9999 ///CB 20/15 Q1016 TEMPO 32015G25KT 2000 TSRA BKN012 SCT030CB
20:00
V
20 °C 10 km+ - 120° 120° 13 kt METAR LFCK 231800Z AUTO 12013KT CAVOK 20/15 Q1016 TEMPO 32015G25KT 2000 TSRA BKN012 SCT030CB
19:30
V
20 °C 10 km+ - 120° 120° 15 kt METAR LFCK 231730Z AUTO 12015KT CAVOK 20/15 Q1016 TEMPO 32015G25KT 2000 TSRA SCT050CB
19:00
V
20 °C 10 km+ - 130° 130° 15 kt METAR LFCK 231700Z AUTO 13015KT CAVOK 20/14 Q1016 TEMPO 32015G25KT 2000 TSRA SCT050CB
18:30
V
20 °C 10 km+ - 120° 120° 16 kt METAR LFCK 231630Z AUTO 12016KT CAVOK 20/14 Q1016 TEMPO 32015G25KT 2000 TSRA SCT050CB
18:00
V
21 °C 10 km+ - 120° 120° 17 kt METAR LFCK 231600Z AUTO 12017KT CAVOK 21/14 Q1015 TEMPO 4000 SHRA SCT050CB
17:30
V
21 °C 10 km+ - 120° 120° 18 kt METAR LFCK 231530Z AUTO 12018KT CAVOK 21/14 Q1016 TEMPO 4000 SHRA SCT050CB
17:00
V
22 °C 10 km+ - 120° 120° 19 kt METAR LFCK 231500Z AUTO 12019KT CAVOK 22/14 Q1016 NOSIG
Starsze dane

My i osoby trzecie śledzimy twoje zachowanie w internecie na naszej stronie za pomocą plików cookie. Jeśli kontynuujesz, zakładamy, że zgadzasz się z naszą polityką plików cookie. Dowiedz się więcej